Time;durP1;ratioP1;P1;durP2;ratioP2;P2;SDS_P1;SDS_P2;PMS_P1;PMS_P2;Temp;Humidity;BMP_temperature;BMP_pressure;BME280_temperature;BME280_humidity;BME280_pressure;Samples;Min_cycle;Max_cycle;Signal;HPM_P1;HPM_P2
2021/07/16 00:00:07;;;;;;;10.35;6.90;;;;;;;;;;4895919;29;20104;-68
2021/07/16 00:02:34;;;;;;;13.07;7.07;;;;;;;;;;4895361;29;20099;-68
2021/07/16 00:05:02;;;;;;;13.07;8.00;;;;;;;;;;4895182;29;20088;-68
2021/07/16 00:07:29;;;;;;;11.02;7.70;;;;;;;;;;4895264;29;20052;-68
2021/07/16 00:09:56;;;;;;;14.88;8.68;;;;;;;;;;4896799;29;20080;-68
2021/07/16 00:12:22;;;;;;;14.77;8.15;;;;;;;;;;4895094;29;20127;-68
2021/07/16 00:14:49;;;;;;;17.83;9.35;;;;;;;;;;4895353;29;20048;-68
2021/07/16 00:17:15;;;;;;;24.35;11.65;;;;;;;;;;4895274;29;20084;-68
2021/07/16 00:19:42;;;;;;;19.70;11.27;;;;;;;;;;4896538;29;20064;-68
2021/07/16 00:22:08;;;;;;;22.13;13.38;;;;;;;;;;4896558;29;20080;-68
2021/07/16 00:24:35;;;;;;;23.45;11.50;;;;;;;;;;4896402;29;20048;-68
2021/07/16 00:27:01;;;;;;;21.52;11.30;;;;;;;;;;4895395;29;20088;-68
2021/07/16 00:29:28;;;;;;;27.45;11.95;;;;;;;;;;4895090;29;20144;-68
2021/07/16 00:31:55;;;;;;;22.10;12.70;;;;;;;;;;4896469;29;20060;-68
2021/07/16 00:34:22;;;;;;;26.60;15.23;;;;;;;;;;4896492;29;20064;-68
2021/07/16 00:36:49;;;;;;;23.77;14.23;;;;;;;;;;4896296;29;20565;-67
2021/07/16 00:39:15;;;;;;;25.92;15.70;;;;;;;;;;4896344;29;20083;-68
2021/07/16 00:41:42;;;;;;;26.65;14.82;;;;;;;;;;4895061;29;20512;-67
2021/07/16 00:44:08;;;;;;;28.20;14.27;;;;;;;;;;4894951;29;20090;-68
2021/07/16 00:46:35;;;;;;;27.02;14.75;;;;;;;;;;4895025;29;20084;-67
2021/07/16 00:49:01;;;;;;;26.23;15.00;;;;;;;;;;4896168;29;20049;-68
2021/07/16 00:51:28;;;;;;;28.27;15.63;;;;;;;;;;4879565;29;20090;-68
2021/07/16 00:53:55;;;;;;;29.42;15.15;;;;;;;;;;4895340;29;20052;-68
2021/07/16 00:56:22;;;;;;;23.75;15.60;;;;;;;;;;4895021;29;20072;-68
2021/07/16 00:58:48;;;;;;;29.58;15.55;;;;;;;;;;4895119;29;20084;-68
2021/07/16 01:01:15;;;;;;;28.88;16.50;;;;;;;;;;4894946;29;20563;-68
2021/07/16 01:03:42;;;;;;;25.00;14.95;;;;;;;;;;4895065;29;20104;-68
2021/07/16 01:06:08;;;;;;;26.33;16.00;;;;;;;;;;4895033;29;20067;-67
2021/07/16 01:08:35;;;;;;;29.73;16.38;;;;;;;;;;4896926;29;20084;-69
2021/07/16 01:11:01;;;;;;;31.48;16.45;;;;;;;;;;4897309;29;20088;-68
2021/07/16 01:13:28;;;;;;;35.42;17.23;;;;;;;;;;4879467;29;20087;-68
2021/07/16 01:15:55;;;;;;;30.85;16.02;;;;;;;;;;4879532;29;20052;-68
2021/07/16 01:18:22;;;;;;;35.13;17.02;;;;;;;;;;4882078;29;20083;-68
2021/07/16 01:20:49;;;;;;;28.70;15.55;;;;;;;;;;4898501;29;20076;-68
2021/07/16 01:23:17;;;;;;;27.38;14.82;;;;;;;;;;4898068;29;20084;-68
2021/07/16 01:25:44;;;;;;;31.88;15.98;;;;;;;;;;4898087;29;20091;-68
2021/07/16 01:28:10;;;;;;;26.35;14.82;;;;;;;;;;4899487;29;20084;-68
2021/07/16 01:30:37;;;;;;;25.55;15.70;;;;;;;;;;4899325;29;20196;-68
2021/07/16 01:33:05;;;;;;;23.35;15.27;;;;;;;;;;4899022;29;20080;-68
2021/07/16 01:35:32;;;;;;;25.65;15.55;;;;;;;;;;4898033;29;20477;-68
2021/07/16 01:37:58;;;;;;;22.30;15.05;;;;;;;;;;4897935;29;20053;-68
2021/07/16 01:40:26;;;;;;;24.08;14.68;;;;;;;;;;4899243;29;20144;-68
2021/07/16 01:42:56;;;;;;;25.63;15.95;;;;;;;;;;4898204;29;20055;-68
2021/07/16 01:45:28;;;;;;;26.90;15.30;;;;;;;;;;4864140;29;20045;-68
2021/07/16 01:47:58;;;;;;;32.42;15.30;;;;;;;;;;4879055;29;20103;-68
2021/07/16 01:50:26;;;;;;;22.65;14.77;;;;;;;;;;4889334;29;20091;-68
2021/07/16 01:52:53;;;;;;;23.50;15.45;;;;;;;;;;4882256;29;20048;-68
2021/07/16 01:55:21;;;;;;;25.30;16.05;;;;;;;;;;4898765;29;20084;-68
2021/07/16 01:57:49;;;;;;;28.30;15.82;;;;;;;;;;4897584;29;20527;-68
2021/07/16 02:00:19;;;;;;;21.30;14.80;;;;;;;;;;4882205;29;20099;-68
2021/07/16 02:02:47;;;;;;;26.52;14.88;;;;;;;;;;4882074;29;20091;-68
2021/07/16 02:05:15;;;;;;;25.48;15.63;;;;;;;;;;4897362;29;20074;-68
2021/07/16 02:07:51;;;;;;;26.75;15.43;;;;;;;;;;4897474;29;20476;-68
2021/07/16 02:10:18;;;;;;;25.58;15.88;;;;;;;;;;4897477;29;20484;-68
2021/07/16 02:12:45;;;;;;;26.27;16.08;;;;;;;;;;4881874;29;20488;-68
2021/07/16 02:15:20;;;;;;;27.83;16.23;;;;;;;;;;4897348;29;20076;-68
2021/07/16 02:17:47;;;;;;;27.83;16.52;;;;;;;;;;4897316;29;20092;-69
2021/07/16 02:20:31;;;;;;;41.85;19.83;;;;;;;;;;4898127;29;20095;-67
2021/07/16 02:22:59;;;;;;;34.40;17.45;;;;;;;;;;4882262;29;20060;-68
2021/07/16 02:25:27;;;;;;;34.05;18.25;;;;;;;;;;4897972;29;20078;-68
2021/07/16 02:27:58;;;;;;;48.63;18.98;;;;;;;;;;4923387;23;20084;-69
2021/07/16 02:30:26;;;;;;;50.88;19.10;;;;;;;;;;4935993;29;20087;-69
2021/07/16 02:32:54;;;;;;;44.33;19.70;;;;;;;;;;4936002;29;20090;-69
2021/07/16 02:35:21;;;;;;;43.17;19.15;;;;;;;;;;4936065;29;20317;-68
2021/07/16 02:37:48;;;;;;;44.80;20.10;;;;;;;;;;4936188;29;20126;-69
2021/07/16 02:40:15;;;;;;;38.90;18.02;;;;;;;;;;4934626;29;20055;-70
2021/07/16 02:42:42;;;;;;;40.78;17.40;;;;;;;;;;4935710;29;20131;-69
2021/07/16 02:45:12;;;;;;;29.50;15.60;;;;;;;;;;4935815;29;20051;-70
2021/07/16 02:47:39;;;;;;;35.83;17.08;;;;;;;;;;4935980;29;20087;-70
2021/07/16 02:50:33;;;;;;;23.83;13.77;;;;;;;;;;4927525;29;20439;-70
2021/07/16 02:53:10;;;;;;;23.58;13.30;;;;;;;;;;4914968;29;20059;-70
2021/07/16 02:55:37;;;;;;;14.30;10.18;;;;;;;;;;4916754;29;20083;-70
2021/07/16 02:58:04;;;;;;;15.07;9.80;;;;;;;;;;4916672;29;20519;-70
2021/07/16 03:00:31;;;;;;;13.20;9.23;;;;;;;;;;4917077;29;20087;-70
2021/07/16 03:02:59;;;;;;;13.93;10.05;;;;;;;;;;4916474;29;20408;-70
2021/07/16 03:05:28;;;;;;;16.58;10.60;;;;;;;;;;4916628;29;20048;-70
2021/07/16 03:07:55;;;;;;;15.55;10.70;;;;;;;;;;4916384;29;20048;-69
2021/07/16 03:10:28;;;;;;;20.00;10.63;;;;;;;;;;4916478;29;20090;-69
2021/07/16 03:12:55;;;;;;;16.90;10.32;;;;;;;;;;4916588;29;20103;-70
2021/07/16 03:15:23;;;;;;;13.07;9.18;;;;;;;;;;4916505;29;20536;-68
2021/07/16 03:17:50;;;;;;;14.23;9.77;;;;;;;;;;4916264;29;20079;-70
2021/07/16 03:20:18;;;;;;;12.45;9.77;;;;;;;;;;4924044;29;20083;-69
2021/07/16 03:22:45;;;;;;;13.80;9.55;;;;;;;;;;4935181;29;20542;-70
2021/07/16 03:25:14;;;;;;;11.50;9.10;;;;;;;;;;4935144;29;20094;-69
2021/07/16 03:27:41;;;;;;;13.95;9.20;;;;;;;;;;4935018;29;20055;-69
2021/07/16 03:30:09;;;;;;;14.02;8.82;;;;;;;;;;4934812;29;20094;-70
2021/07/16 03:32:35;;;;;;;13.23;8.70;;;;;;;;;;4933699;29;20090;-70
2021/07/16 03:35:06;;;;;;;14.73;9.77;;;;;;;;;;4935040;29;20094;-69
2021/07/16 03:37:37;;;;;;;10.75;8.77;;;;;;;;;;4934874;29;20499;-70
2021/07/16 03:40:05;;;;;;;15.18;10.52;;;;;;;;;;4928737;29;20084;-69
2021/07/16 03:42:32;;;;;;;13.00;10.27;;;;;;;;;;4915683;29;20088;-71
2021/07/16 03:44:58;;;;;;;16.50;10.80;;;;;;;;;;4916200;29;20515;-71
2021/07/16 03:47:25;;;;;;;14.70;11.32;;;;;;;;;;4915759;29;20567;-71
2021/07/16 03:49:51;;;;;;;11.93;8.82;;;;;;;;;;4915702;29;20090;-70
2021/07/16 03:52:18;;;;;;;12.35;9.35;;;;;;;;;;4923392;29;20597;-70
2021/07/16 03:54:45;;;;;;;13.73;9.93;;;;;;;;;;4934819;29;20135;-70
2021/07/16 03:57:11;;;;;;;11.77;9.27;;;;;;;;;;4934558;29;20499;-70
2021/07/16 03:59:38;;;;;;;15.10;8.73;;;;;;;;;;4934351;29;20091;-71
2021/07/16 04:02:05;;;;;;;11.13;8.80;;;;;;;;;;4934524;29;20187;-70
2021/07/16 04:04:33;;;;;;;10.00;8.98;;;;;;;;;;4934597;29;20515;-70
2021/07/16 04:07:00;;;;;;;11.40;8.10;;;;;;;;;;4934039;29;20079;-70
2021/07/16 04:09:28;;;;;;;13.52;10.18;;;;;;;;;;4934401;29;20083;-70
2021/07/16 04:12:27;;;;;;;11.95;9.77;;;;;;;;;;4934379;29;20097;-70
2021/07/16 04:14:55;;;;;;;16.33;11.80;;;;;;;;;;4933192;29;20130;-70
2021/07/16 04:17:23;;;;;;;19.35;13.32;;;;;;;;;;4934553;29;20086;-70
2021/07/16 04:19:50;;;;;;;18.63;13.07;;;;;;;;;;4934377;29;20082;-70
2021/07/16 04:22:17;;;;;;;18.17;13.35;;;;;;;;;;4934399;29;20094;-70
2021/07/16 04:24:44;;;;;;;23.10;14.43;;;;;;;;;;4933167;29;20060;-70
2021/07/16 04:27:11;;;;;;;19.73;14.20;;;;;;;;;;4934285;29;20083;-70
2021/07/16 04:29:39;;;;;;;21.92;13.73;;;;;;;;;;4934096;29;20060;-71
2021/07/16 04:32:07;;;;;;;23.55;14.65;;;;;;;;;;4934282;29;20195;-70
2021/07/16 04:34:35;;;;;;;19.33;14.48;;;;;;;;;;4934338;29;20099;-70
2021/07/16 04:37:03;;;;;;;20.83;14.90;;;;;;;;;;4934420;29;20127;-70
2021/07/16 04:39:30;;;;;;;19.80;14.65;;;;;;;;;;4934250;29;20475;-70
2021/07/16 04:41:56;;;;;;;17.73;15.02;;;;;;;;;;4934554;29;20075;-70
2021/07/16 04:44:24;;;;;;;18.90;13.88;;;;;;;;;;4934206;29;20059;-71
2021/07/16 04:46:50;;;;;;;15.05;12.55;;;;;;;;;;4934133;29;20082;-71
2021/07/16 04:49:17;;;;;;;19.48;14.25;;;;;;;;;;4934338;29;20094;-70
2021/07/16 04:51:44;;;;;;;17.52;13.25;;;;;;;;;;4933040;29;20075;-70
2021/07/16 04:54:14;;;;;;;17.58;14.43;;;;;;;;;;4937958;29;20087;-70
2021/07/16 04:56:41;;;;;;;18.92;13.70;;;;;;;;;;4938115;29;20090;-70
2021/07/16 04:59:08;;;;;;;19.75;13.85;;;;;;;;;;4937877;29;20119;-71
2021/07/16 05:01:34;;;;;;;14.52;11.88;;;;;;;;;;4937652;29;20051;-70
2021/07/16 05:04:01;;;;;;;14.40;12.30;;;;;;;;;;4937907;29;20431;-70
2021/07/16 05:06:28;;;;;;;16.10;12.07;;;;;;;;;;4937432;29;20139;-70
2021/07/16 05:08:54;;;;;;;15.23;11.55;;;;;;;;;;4937569;29;20086;-70
2021/07/16 05:11:21;;;;;;;16.88;12.05;;;;;;;;;;4937398;29;20055;-71
2021/07/16 05:13:48;;;;;;;15.45;11.68;;;;;;;;;;4937760;29;20130;-70
2021/07/16 05:16:16;;;;;;;17.45;12.48;;;;;;;;;;4937621;29;20048;-70
2021/07/16 05:18:43;;;;;;;17.30;12.63;;;;;;;;;;4936208;29;20422;-70
2021/07/16 05:21:11;;;;;;;15.10;11.68;;;;;;;;;;4937353;29;20082;-70
2021/07/16 05:23:42;;;;;;;19.83;13.40;;;;;;;;;;4937329;29;20059;-70
2021/07/16 05:26:09;;;;;;;21.98;13.98;;;;;;;;;;4937289;29;20086;-70
2021/07/16 05:28:36;;;;;;;19.40;13.77;;;;;;;;;;4932412;29;20056;-70
2021/07/16 05:31:02;;;;;;;20.52;14.23;;;;;;;;;;4925292;29;20095;-69
2021/07/16 05:33:29;;;;;;;22.40;14.50;;;;;;;;;;4917995;29;20056;-69
2021/07/16 05:35:56;;;;;;;24.63;13.68;;;;;;;;;;4917870;29;20091;-68
2021/07/16 05:38:22;;;;;;;20.48;13.48;;;;;;;;;;4917788;29;20135;-68
2021/07/16 05:40:49;;;;;;;19.13;13.45;;;;;;;;;;4917985;29;20103;-68
2021/07/16 05:43:15;;;;;;;20.20;14.10;;;;;;;;;;4916243;29;20354;-69
2021/07/16 05:45:42;;;;;;;20.58;14.57;;;;;;;;;;4915723;29;20500;-69
2021/07/16 05:48:10;;;;;;;22.48;14.90;;;;;;;;;;4916002;29;20059;-69
2021/07/16 05:50:38;;;;;;;20.88;14.95;;;;;;;;;;4915730;29;20048;-69
2021/07/16 05:53:05;;;;;;;23.35;15.18;;;;;;;;;;4914632;29;20565;-68
2021/07/16 05:55:32;;;;;;;21.52;15.13;;;;;;;;;;4915430;29;20099;-69
2021/07/16 05:57:59;;;;;;;26.38;16.00;;;;;;;;;;4916005;29;20409;-69
2021/07/16 06:00:25;;;;;;;23.05;15.60;;;;;;;;;;4915704;29;20091;-69
2021/07/16 06:02:52;;;;;;;26.13;16.50;;;;;;;;;;4915100;29;20087;-69
2021/07/16 06:05:19;;;;;;;23.65;15.73;;;;;;;;;;4915797;29;20562;-68
2021/07/16 06:07:45;;;;;;;22.90;15.23;;;;;;;;;;4915292;29;20048;-69
2021/07/16 06:10:12;;;;;;;22.45;15.90;;;;;;;;;;4915094;29;20147;-69
2021/07/16 06:12:39;;;;;;;23.92;16.55;;;;;;;;;;4914151;29;20079;-69
2021/07/16 06:15:06;;;;;;;26.67;16.13;;;;;;;;;;4915931;29;20087;-69
2021/07/16 06:17:33;;;;;;;24.90;15.82;;;;;;;;;;4915432;29;20079;-68
2021/07/16 06:20:00;;;;;;;22.27;16.23;;;;;;;;;;4915495;29;20058;-69
2021/07/16 06:22:26;;;;;;;25.52;17.83;;;;;;;;;;4916779;29;20476;-69
2021/07/16 06:24:53;;;;;;;21.80;16.67;;;;;;;;;;4932926;29;20090;-68
2021/07/16 06:27:20;;;;;;;24.15;16.75;;;;;;;;;;4934052;29;20468;-69
2021/07/16 06:29:46;;;;;;;22.98;16.90;;;;;;;;;;4934106;29;20494;-69
2021/07/16 06:32:13;;;;;;;24.48;17.88;;;;;;;;;;4933782;29;20463;-69
2021/07/16 06:34:40;;;;;;;18.95;15.00;;;;;;;;;;4914391;29;20052;-68
2021/07/16 06:37:07;;;;;;;22.23;16.10;;;;;;;;;;4915319;29;20080;-68
2021/07/16 06:39:33;;;;;;;17.48;14.88;;;;;;;;;;4916401;29;20083;-68
2021/07/16 06:42:00;;;;;;;17.00;14.85;;;;;;;;;;4916478;29;20498;-68
2021/07/16 06:44:26;;;;;;;16.45;13.95;;;;;;;;;;4931279;29;20099;-68
2021/07/16 06:46:53;;;;;;;17.13;13.75;;;;;;;;;;4933976;29;20091;-68
2021/07/16 06:49:26;;;;;;;17.40;13.45;;;;;;;;;;4934327;29;20056;-69
2021/07/16 06:51:56;;;;;;;18.40;13.82;;;;;;;;;;4933354;29;20138;-70
2021/07/16 06:54:26;;;;;;;17.30;14.48;;;;;;;;;;4917014;29;20419;-69
2021/07/16 06:56:54;;;;;;;18.48;12.77;;;;;;;;;;4914684;29;20048;-69
2021/07/16 06:59:21;;;;;;;16.00;13.57;;;;;;;;;;4914317;29;20060;-68
2021/07/16 07:01:48;;;;;;;17.38;13.82;;;;;;;;;;4914462;29;20508;-69
2021/07/16 07:04:15;;;;;;;19.63;12.88;;;;;;;;;;4929110;29;20049;-70
2021/07/16 07:06:42;;;;;;;17.70;14.73;;;;;;;;;;4932499;29;20090;-71
2021/07/16 07:09:10;;;;;;;17.05;13.63;;;;;;;;;;4922821;29;20560;-70
2021/07/16 07:11:37;;;;;;;16.25;13.38;;;;;;;;;;4922135;29;20062;-70
2021/07/16 07:14:04;;;;;;;19.10;14.27;;;;;;;;;;4921439;29;20060;-70
2021/07/16 07:16:31;;;;;;;14.70;12.77;;;;;;;;;;4918188;29;20054;-69
2021/07/16 07:18:58;;;;;;;18.48;13.45;;;;;;;;;;4921120;29;20414;-68
2021/07/16 07:21:25;;;;;;;16.83;13.40;;;;;;;;;;4919028;29;20120;-69
2021/07/16 07:23:51;;;;;;;14.07;12.65;;;;;;;;;;4924146;29;20158;-69
2021/07/16 07:26:18;;;;;;;14.98;12.50;;;;;;;;;;4919628;29;20107;-71
2021/07/16 07:28:44;;;;;;;18.10;13.57;;;;;;;;;;4920171;29;20079;-70
2021/07/16 07:31:11;;;;;;;12.45;11.13;;;;;;;;;;4918951;29;20051;-73
2021/07/16 07:33:37;;;;;;;13.57;11.70;;;;;;;;;;4917366;29;20051;-70
2021/07/16 07:36:04;;;;;;;12.75;11.20;;;;;;;;;;4923103;29;20056;-68
2021/07/16 07:38:35;;;;;;;14.73;11.52;;;;;;;;;;4921921;29;20514;-68
2021/07/16 07:41:05;;;;;;;12.40;11.13;;;;;;;;;;4922171;29;20058;-69
2021/07/16 07:43:31;;;;;;;14.73;10.45;;;;;;;;;;4923296;29;20110;-68
2021/07/16 07:45:58;;;;;;;10.18;9.10;;;;;;;;;;4920811;29;20316;-68
2021/07/16 07:48:25;;;;;;;12.20;10.95;;;;;;;;;;4919085;29;20106;-69
2021/07/16 07:50:51;;;;;;;10.77;9.32;;;;;;;;;;4920713;29;20590;-68
2021/07/16 07:53:18;;;;;;;9.98;8.98;;;;;;;;;;4922846;29;20091;-68
2021/07/16 07:55:44;;;;;;;11.43;10.13;;;;;;;;;;4918540;29;20079;-71
2021/07/16 07:58:11;;;;;;;13.15;9.60;;;;;;;;;;4919187;29;20084;-68
2021/07/16 08:00:37;;;;;;;10.30;9.27;;;;;;;;;;4929446;29;20511;-68
